Time;durP1;ratioP1;P1;durP2;ratioP2;P2;SDS_P1;SDS_P2;PMS_P1;PMS_P2;Temp;Humidity;BMP_temperature;BMP_pressure;BME280_temperature;BME280_humidity;BME280_pressure;Samples;Min_cycle;Max_cycle;Signal;HPM_P1;HPM_P2
2021/06/21 00:01:36;;;;;;;6.80;1.27;;;;;;;18.29;88.99;99585.69;5050734;28;20045;-92
2021/06/21 00:04:02;;;;;;;4.95;1.20;;;;;;;18.27;90.05;99579.72;5034661;28;20120;-89
2021/06/21 00:06:27;;;;;;;4.03;1.52;;;;;;;18.21;92.46;99588.66;5041732;28;20109;-92
2021/06/21 00:08:53;;;;;;;3.80;1.40;;;;;;;18.17;92.89;99590.97;5049025;28;20045;-92
2021/06/21 00:11:20;;;;;;;3.15;1.20;;;;;;;18.14;93.39;99594.09;5047791;28;20038;-92
2021/06/21 00:13:46;;;;;;;4.50;1.25;;;;;;;18.18;92.86;99584.56;5039078;28;20045;-92
2021/06/21 00:16:12;;;;;;;2.13;0.98;;;;;;;18.24;91.23;99582.88;5055413;28;20488;-92
2021/06/21 00:18:38;;;;;;;4.32;1.30;;;;;;;18.27;90.94;99577.06;5033663;28;20040;-92
2021/06/21 00:21:05;;;;;;;3.22;1.40;;;;;;;18.22;91.94;99575.06;5049825;28;20040;-92
2021/06/21 00:23:34;;;;;;;4.20;1.40;;;;;;;18.16;92.23;99583.16;5051352;28;20041;-92
2021/06/21 00:26:01;;;;;;;3.10;1.25;;;;;;;18.15;91.08;99584.22;5050191;28;20033;-91
2021/06/21 00:28:27;;;;;;;2.90;1.30;;;;;;;18.14;91.73;99586.06;5041099;28;20055;-92
2021/06/21 00:30:54;;;;;;;4.18;1.45;;;;;;;18.14;90.78;99583.41;5062181;28;20048;-92
2021/06/21 00:33:20;;;;;;;3.65;1.23;;;;;;;18.15;90.37;99592.22;5042138;28;20040;-92
2021/06/21 00:35:47;;;;;;;4.80;1.20;;;;;;;18.14;89.75;99590.59;5050420;28;20049;-92
2021/06/21 00:38:13;;;;;;;4.55;1.52;;;;;;;18.19;88.87;99588.06;5054838;28;20033;-91
2021/06/21 00:40:39;;;;;;;4.60;1.23;;;;;;;18.14;90.41;99585.22;5033862;28;20033;-91
2021/06/21 00:43:06;;;;;;;6.90;1.60;;;;;;;18.12;89.62;99584.66;5067550;28;20045;-91
2021/06/21 00:45:33;;;;;;;6.40;1.75;;;;;;;18.08;89.72;99583.47;5051052;28;20056;-91
2021/06/21 00:47:58;;;;;;;6.25;1.77;;;;;;;18.11;89.03;99583.81;5050355;28;20025;-91
2021/06/21 00:50:27;;;;;;;6.55;1.70;;;;;;;18.12;88.82;99579.31;5049097;28;20048;-91
2021/06/21 00:52:59;;;;;;;8.63;1.67;;;;;;;18.15;88.96;99579.66;5050298;28;20258;-91
2021/06/21 00:55:26;;;;;;;8.23;1.70;;;;;;;18.21;88.77;99588.66;5050374;28;20051;-91
2021/06/21 00:57:52;;;;;;;7.78;2.08;;;;;;;18.10;89.71;99587.56;5049894;28;20044;-91
2021/06/21 01:00:22;;;;;;;6.68;1.85;;;;;;;18.09;89.32;99585.09;5044317;28;20041;-92
2021/06/21 01:02:48;;;;;;;7.22;2.17;;;;;;;18.11;89.45;99585.69;5044425;28;20036;-91
2021/06/21 01:05:20;;;;;;;8.50;2.00;;;;;;;18.12;89.12;99573.97;5050669;28;20033;-91
2021/06/21 01:07:46;;;;;;;7.20;2.13;;;;;;;18.07;89.62;99571.13;5049417;28;20549;-91
2021/06/21 01:10:15;;;;;;;5.93;2.00;;;;;;;18.09;89.77;99571.72;5065053;28;20037;-91
2021/06/21 01:13:00;;;;;;;6.75;1.80;;;;;;;18.10;88.87;99573.38;5050679;28;20056;-91
2021/06/21 01:15:34;;;;;;;5.93;1.92;;;;;;;18.02;88.86;99575.31;5050354;28;20048;-91
2021/06/21 01:18:09;;;;;;;10.23;2.38;;;;;;;17.99;88.68;99565.03;5052061;28;20044;-92
2021/06/21 01:21:02;;;;;;;7.28;2.15;;;;;;;17.95;89.37;99558.50;5022076;28;20080;-91
2021/06/21 01:23:39;;;;;;;6.47;2.08;;;;;;;17.87;90.36;99560.66;5057013;28;20038;-90
2021/06/21 01:26:15;;;;;;;6.80;2.13;;;;;;;17.88;89.74;99556.97;5068565;28;20041;-90
2021/06/21 01:29:13;;;;;;;6.90;2.10;;;;;;;17.83;90.45;99555.75;5054484;28;20033;-90
2021/06/21 01:31:47;;;;;;;5.65;1.70;;;;;;;17.85;90.08;99550.19;5055501;28;20043;-90
2021/06/21 01:34:15;;;;;;;7.43;1.95;;;;;;;17.89;89.19;99540.66;5054764;28;20555;-90
2021/06/21 01:36:42;;;;;;;7.40;2.03;;;;;;;17.88;89.80;99546.25;5054373;28;20033;-90
2021/06/21 01:39:09;;;;;;;7.78;1.80;;;;;;;17.85;89.96;99544.81;5054138;28;20029;-90
2021/06/21 01:41:39;;;;;;;8.50;1.75;;;;;;;17.81;89.58;99546.34;5053502;28;20507;-90
2021/06/21 01:44:07;;;;;;;6.13;1.80;;;;;;;17.87;88.98;99548.09;5053444;28;20572;-91
2021/06/21 01:46:36;;;;;;;9.40;2.15;;;;;;;17.82;89.35;99551.44;5053394;28;20392;-91
2021/06/21 01:49:12;;;;;;;10.10;2.08;;;;;;;17.85;88.95;99544.81;5053766;28;20044;-91
2021/06/21 01:51:40;;;;;;;9.98;2.22;;;;;;;17.85;88.26;99557.38;5053601;28;20433;-91
2021/06/21 01:54:08;;;;;;;7.60;2.22;;;;;;;17.88;87.96;99557.78;5052974;28;20037;-90
2021/06/21 01:56:37;;;;;;;8.18;2.03;;;;;;;17.91;87.55;99562.66;5053832;28;20037;-91
2021/06/21 01:59:05;;;;;;;10.40;2.08;;;;;;;17.89;87.15;99554.03;5053937;28;20120;-90
2021/06/21 02:01:32;;;;;;;9.82;2.08;;;;;;;17.87;87.44;99556.13;5058094;28;20033;-89
2021/06/21 02:04:00;;;;;;;5.93;1.77;;;;;;;17.79;87.48;99553.72;5057821;28;20036;-90
2021/06/21 02:06:27;;;;;;;13.32;2.50;;;;;;;17.82;87.02;99554.13;5052906;28;20053;-89
2021/06/21 02:08:54;;;;;;;9.80;2.20;;;;;;;17.82;86.88;99553.31;5060074;28;20087;-89
2021/06/21 02:11:20;;;;;;;10.68;2.22;;;;;;;17.80;87.23;99556.22;5050918;28;20040;-89
2021/06/21 02:13:49;;;;;;;5.53;1.58;;;;;;;17.80;87.10;99566.91;5053212;28;20037;-89
2021/06/21 02:16:16;;;;;;;8.77;2.33;;;;;;;17.79;86.46;99564.41;5052881;28;20547;-89
2021/06/21 02:18:42;;;;;;;7.65;1.88;;;;;;;17.78;86.78;99576.13;5058984;28;20089;-89
2021/06/21 02:21:08;;;;;;;6.65;1.80;;;;;;;17.77;86.67;99569.16;5055655;28;20033;-92
2021/06/21 02:23:37;;;;;;;9.45;2.00;;;;;;;17.71;87.41;99562.88;5053178;28;20041;-91
2021/06/21 02:26:04;;;;;;;7.07;2.03;;;;;;;17.75;86.92;99568.56;5052661;28;20029;-90
2021/06/21 02:28:30;;;;;;;7.55;1.90;;;;;;;17.69;87.73;99567.63;5068814;28;20558;-91
2021/06/21 02:30:58;;;;;;;12.40;2.47;;;;;;;17.67;87.56;99566.19;5051961;28;20078;-90
2021/06/21 02:33:25;;;;;;;10.52;2.40;;;;;;;17.62;87.90;99562.31;5052285;28;20037;-91
2021/06/21 02:35:53;;;;;;;10.60;2.67;;;;;;;17.57;88.97;99564.03;5051945;28;20033;-93
2021/06/21 02:38:19;;;;;;;9.65;2.42;;;;;;;17.63;87.63;99571.97;5050677;28;20190;-91
2021/06/21 02:40:45;;;;;;;10.63;2.33;;;;;;;17.58;88.51;99571.81;5052215;28;20131;-92
2021/06/21 02:43:11;;;;;;;6.15;2.20;;;;;;;17.58;88.53;99574.50;5051544;28;20025;-92
2021/06/21 02:45:37;;;;;;;13.45;2.72;;;;;;;17.59;87.85;99565.44;5045762;28;20391;-92
2021/06/21 02:48:07;;;;;;;9.57;2.28;;;;;;;17.58;87.72;99579.03;5040978;28;20030;-91
2021/06/21 02:50:35;;;;;;;8.68;2.65;;;;;;;17.58;87.89;99581.69;5052385;28;20118;-91
2021/06/21 02:53:49;;;;;;;9.70;3.03;;;;;;;17.54;88.01;99578.66;5068751;28;20039;-90
2021/06/21 02:56:36;;;;;;;8.05;2.47;;;;;;;17.57;87.59;99583.56;4992843;28;20425;-92
2021/06/21 02:59:12;;;;;;;12.50;3.10;;;;;;;17.57;87.54;99583.56;4995155;28;20038;-90
2021/06/21 03:01:45;;;;;;;11.43;2.33;;;;;;;17.55;88.08;99580.28;5036860;28;20056;-90
2021/06/21 03:04:13;;;;;;;10.18;2.40;;;;;;;17.52;88.14;99582.56;5051933;28;20037;-90
2021/06/21 03:06:41;;;;;;;9.57;2.80;;;;;;;17.43;88.69;99591.94;5052431;28;20029;-90
2021/06/21 03:09:06;;;;;;;7.45;2.28;;;;;;;17.40;89.83;99596.69;5052404;28;20029;-90
2021/06/21 03:11:33;;;;;;;8.80;2.60;;;;;;;17.45;88.74;99589.84;5052302;28;20265;-90
2021/06/21 03:13:59;;;;;;;9.10;2.63;;;;;;;17.49;88.28;99594.53;5052768;28;20082;-91
2021/06/21 03:16:27;;;;;;;10.85;2.95;;;;;;;17.45;89.05;99590.69;5051607;28;20029;-91
2021/06/21 03:18:55;;;;;;;9.07;2.78;;;;;;;17.46;88.41;99615.53;5052158;28;20396;-90
2021/06/21 03:21:21;;;;;;;9.05;2.53;;;;;;;17.50;88.12;99604.19;5052179;28;20428;-90
2021/06/21 03:23:54;;;;;;;9.35;3.13;;;;;;;17.53;87.83;99602.94;5058801;28;20067;-90
2021/06/21 03:26:25;;;;;;;10.20;3.08;;;;;;;17.51;88.06;99608.50;5053302;28;20025;-90
2021/06/21 03:28:51;;;;;;;;;;;;;;;17.52;88.15;99628.00;5069401;28;20040;-90
2021/06/21 03:31:17;;;;;;;6.53;2.55;;;;;;;17.44;88.57;99615.75;5052146;28;20295;-89
2021/06/21 03:33:43;;;;;;;10.32;2.80;;;;;;;17.44;88.44;99623.78;5052273;28;20025;-90
2021/06/21 03:36:08;;;;;;;5.60;2.10;;;;;;;17.43;88.64;99632.03;5051475;28;20029;-90
2021/06/21 03:38:34;;;;;;;7.32;2.28;;;;;;;17.43;88.85;99622.16;5052046;28;20400;-90
2021/06/21 03:41:02;;;;;;;6.68;2.40;;;;;;;17.47;88.08;99609.16;5051627;28;20107;-90
2021/06/21 03:43:29;;;;;;;8.45;2.90;;;;;;;17.47;87.91;99617.16;5065323;28;20053;-90
2021/06/21 03:45:57;;;;;;;7.38;2.35;;;;;;;17.49;87.93;99607.88;5048417;28;20041;-90
2021/06/21 03:48:23;;;;;;;8.35;1.88;;;;;;;17.50;88.28;99614.06;5044942;28;20029;-90
2021/06/21 03:50:49;;;;;;;8.02;2.40;;;;;;;17.43;88.41;99611.44;5051641;28;20071;-90
2021/06/21 03:53:16;;;;;;;7.72;2.38;;;;;;;17.45;88.48;99616.56;5051861;28;20044;-90
2021/06/21 03:55:42;;;;;;;7.47;2.40;;;;;;;17.38;89.09;99612.09;5051910;28;20065;-90
2021/06/21 03:58:07;;;;;;;8.70;2.40;;;;;;;17.43;88.61;99624.81;5051144;28;20072;-90
2021/06/21 04:00:35;;;;;;;5.95;2.03;;;;;;;17.42;89.33;99617.81;5051496;28;20441;-90
2021/06/21 04:03:00;;;;;;;4.75;2.10;;;;;;;17.43;89.08;99613.31;5051680;28;20029;-90
2021/06/21 04:05:26;;;;;;;4.90;1.88;;;;;;;17.52;88.45;99618.16;5040840;28;20035;-90
2021/06/21 04:07:53;;;;;;;6.70;1.92;;;;;;;17.56;88.07;99627.34;5056250;28;20025;-90
2021/06/21 04:10:22;;;;;;;8.43;2.40;;;;;;;17.59;88.33;99628.78;5050351;28;20029;-90
2021/06/21 04:12:49;;;;;;;7.18;2.00;;;;;;;17.64;87.66;99626.28;5052025;28;20083;-89
2021/06/21 04:15:17;;;;;;;5.38;1.85;;;;;;;17.64;87.79;99634.31;5053021;28;20511;-90
2021/06/21 04:17:42;;;;;;;6.72;2.15;;;;;;;17.67;87.28;99625.03;5051362;28;20045;-90
2021/06/21 04:20:14;;;;;;;10.32;2.53;;;;;;;17.62;87.70;99634.50;5050655;28;20039;-90
2021/06/21 04:22:40;;;;;;;4.70;1.77;;;;;;;17.62;87.87;99639.03;5052235;28;20044;-89
2021/06/21 04:25:12;;;;;;;5.75;2.10;;;;;;;17.63;87.54;99636.13;5052070;28;20112;-90
2021/06/21 04:27:38;;;;;;;6.68;2.05;;;;;;;17.66;87.55;99636.72;5052192;28;20540;-90
2021/06/21 04:30:08;;;;;;;10.25;1.95;;;;;;;17.71;87.03;99628.88;5051296;28;20055;-90
2021/06/21 04:32:34;;;;;;;7.13;2.30;;;;;;;17.73;87.14;99629.47;5067879;28;20033;-90
2021/06/21 04:35:00;;;;;;;8.10;2.20;;;;;;;17.77;87.03;99633.34;5051049;28;20282;-90
2021/06/21 04:37:25;;;;;;;6.20;2.05;;;;;;;17.77;86.96;99638.69;5050934;28;20048;-90
2021/06/21 04:39:51;;;;;;;8.35;2.35;;;;;;;17.82;86.64;99644.22;5051050;28;20037;-90
2021/06/21 04:42:16;;;;;;;8.10;2.22;;;;;;;17.81;86.82;99640.75;5050418;28;20043;-91
2021/06/21 04:44:42;;;;;;;6.90;2.20;;;;;;;17.90;86.22;99635.09;5051703;28;20037;-91
2021/06/21 04:47:07;;;;;;;6.65;2.22;;;;;;;17.93;86.27;99629.31;5050909;28;20492;-91
2021/06/21 04:49:33;;;;;;;6.97;2.03;;;;;;;17.91;86.14;99637.56;5051157;28;20079;-90
2021/06/21 04:51:59;;;;;;;7.75;2.38;;;;;;;17.95;86.39;99637.94;5050736;28;20029;-90
2021/06/21 04:54:24;;;;;;;5.55;1.83;;;;;;;18.04;86.13;99633.91;5050286;28;20033;-91
2021/06/21 04:56:49;;;;;;;6.45;2.15;;;;;;;18.05;85.74;99640.91;5056110;28;20044;-91
2021/06/21 04:59:15;;;;;;;8.07;2.13;;;;;;;18.04;86.03;99642.78;5051465;28;20037;-90
2021/06/21 05:01:40;;;;;;;7.47;2.05;;;;;;;18.09;85.79;99635.91;5062755;28;20029;-90
2021/06/21 05:04:06;;;;;;;6.72;2.00;;;;;;;18.10;85.75;99641.06;5052892;28;20124;-91
2021/06/21 05:06:36;;;;;;;7.68;2.25;;;;;;;18.13;85.60;99629.09;5051082;28;20076;-92
2021/06/21 05:09:02;;;;;;;8.30;2.30;;;;;;;18.22;84.82;99639.28;5064343;28;20040;-91
2021/06/21 05:11:32;;;;;;;8.38;2.00;;;;;;;18.21;84.75;99637.66;5051432;28;20037;-91
2021/06/21 05:13:58;;;;;;;8.70;2.03;;;;;;;18.23;84.28;99626.69;5051357;28;20043;-90
2021/06/21 05:16:26;;;;;;;5.45;1.92;;;;;;;18.29;84.68;99625.81;5047114;28;20124;-92
2021/06/21 05:18:55;;;;;;;7.72;1.95;;;;;;;18.34;84.20;99622.47;5066078;28;20037;-92
2021/06/21 05:21:24;;;;;;;6.85;2.10;;;;;;;18.37;83.51;99619.34;5069508;28;20033;-90
2021/06/21 05:23:49;;;;;;;6.93;2.10;;;;;;;18.41;83.21;99629.38;5055495;28;20067;-90
2021/06/21 05:26:15;;;;;;;7.80;2.10;;;;;;;18.50;83.08;99632.56;5054340;28;20033;-93
2021/06/21 05:28:41;;;;;;;11.15;2.08;;;;;;;18.56;83.18;99634.31;5049491;28;20416;-91
2021/06/21 05:31:07;;;;;;;6.05;2.70;;;;;;;18.58;82.11;99621.53;5049499;28;20174;-90
2021/06/21 05:33:33;;;;;;;7.57;2.30;;;;;;;18.64;82.08;99633.22;5050103;28;20053;-90
2021/06/21 05:35:58;;;;;;;8.90;2.40;;;;;;;18.70;81.94;99631.47;5050602;28;20094;-91
2021/06/21 05:38:28;;;;;;;5.30;1.90;;;;;;;18.67;82.11;99630.06;5058294;28;20040;-92
2021/06/21 05:40:57;;;;;;;8.93;2.00;;;;;;;18.72;82.53;99632.06;5049428;28;20443;-92
2021/06/21 05:43:23;;;;;;;6.20;1.98;;;;;;;18.75;81.60;99637.78;5038551;28;20029;-91
2021/06/21 05:45:48;;;;;;;8.77;2.17;;;;;;;18.87;81.82;99632.50;5053116;28;20423;-91
2021/06/21 05:48:16;;;;;;;6.43;2.05;;;;;;;19.05;80.60;99642.34;5049710;28;20113;-91
2021/06/21 05:50:42;;;;;;;6.57;1.90;;;;;;;19.14;80.82;99634.78;5051089;28;20480;-90
2021/06/21 05:53:08;;;;;;;7.03;1.90;;;;;;;19.40;80.94;99637.06;5050717;28;20047;-91
2021/06/21 05:55:34;;;;;;;7.47;2.13;;;;;;;19.85;78.35;99633.81;5050559;28;20055;-92
2021/06/21 05:58:01;;;;;;;8.07;2.17;;;;;;;20.26;77.93;99631.19;5049389;28;20044;-91
2021/06/21 06:00:27;;;;;;;5.18;1.70;;;;;;;20.70;77.58;99644.97;5053549;28;20115;-91
2021/06/21 06:02:57;;;;;;;8.60;2.00;;;;;;;20.99;74.13;99641.22;5055685;28;20037;-91
2021/06/21 06:05:29;;;;;;;5.78;1.92;;;;;;;21.20;72.47;99636.19;5057447;28;20036;-92
2021/06/21 06:08:01;;;;;;;;;;;;;;;21.45;73.53;99638.50;5058370;28;20026;-93
2021/06/21 06:10:31;;;;;;;4.95;1.55;;;;;;;21.71;71.90;99639.69;5044314;28;19924;-93
2021/06/21 06:12:57;;;;;;;10.00;2.00;;;;;;;21.95;70.92;99637.66;5053585;28;20040;-90
2021/06/21 06:15:23;;;;;;;4.78;1.88;;;;;;;22.08;69.04;99641.03;5052940;28;20039;-91
2021/06/21 06:17:49;;;;;;;7.00;1.70;;;;;;;22.16;69.42;99648.66;5053727;28;20163;-88
2021/06/21 06:20:27;;;;;;;5.75;1.50;;;;;;;22.44;67.41;99650.41;5054452;28;20112;-88
2021/06/21 06:22:52;;;;;;;6.00;1.83;;;;;;;22.64;68.32;99656.03;5060096;28;20040;-89
2021/06/21 06:25:18;;;;;;;5.70;1.50;;;;;;;22.90;65.88;99661.66;5052634;28;20167;-89
2021/06/21 06:27:43;;;;;;;5.40;1.60;;;;;;;23.10;66.91;99658.41;5070399;28;20110;-89
2021/06/21 06:30:11;;;;;;;6.15;1.67;;;;;;;23.53;66.88;99667.41;5060817;28;20028;-88
2021/06/21 06:32:38;;;;;;;7.25;1.90;;;;;;;23.86;63.05;99655.50;5069978;28;20663;-89
2021/06/21 06:35:04;;;;;;;6.47;1.85;;;;;;;24.11;64.20;99668.31;5057616;28;20021;-88
2021/06/21 06:37:29;;;;;;;7.72;1.80;;;;;;;24.07;62.42;99669.09;5052744;28;20107;-88
2021/06/21 06:39:55;;;;;;;7.53;1.83;;;;;;;23.75;62.02;99667.31;5052359;28;20536;-89
2021/06/21 06:42:21;;;;;;;10.65;1.80;;;;;;;23.87;62.71;99664.41;5063169;28;20549;-89
2021/06/21 06:44:46;;;;;;;6.43;1.80;;;;;;;24.30;61.14;99668.69;5057998;28;20037;-89
2021/06/21 06:47:12;;;;;;;7.38;1.90;;;;;;;24.73;60.69;99664.00;5053090;28;20029;-89
2021/06/21 06:49:37;;;;;;;6.22;1.85;;;;;;;24.82;60.26;99667.00;5052757;28;20094;-89
2021/06/21 06:52:03;;;;;;;6.20;1.60;;;;;;;24.70;59.13;99666.44;5053138;28;20134;-87
2021/06/21 06:56:58;;;;;;;6.07;1.90;;;;;;;24.76;59.65;99662.66;5069605;28;20029;-89
2021/06/21 06:57:14;;;;;;;7.72;2.03;;;;;;;25.28;58.94;99672.50;5052615;28;20123;-89
2021/06/21 06:59:44;;;;;;;6.93;1.80;;;;;;;25.23;58.40;99667.09;5052030;28;20056;-88
2021/06/21 07:02:35;;;;;;;6.63;1.80;;;;;;;25.29;58.29;99674.16;5053544;28;20090;-88
2021/06/21 07:05:01;;;;;;;8.68;1.77;;;;;;;25.44;56.14;99667.91;5047843;28;20692;-89
2021/06/21 07:07:27;;;;;;;6.45;1.83;;;;;;;25.36;56.71;99665.72;5052454;28;20036;-88
2021/06/21 07:09:55;;;;;;;5.97;1.83;;;;;;;25.31;56.94;99665.75;5052626;28;20029;-88
2021/06/21 07:12:20;;;;;;;5.53;1.85;;;;;;;25.39;56.48;99668.72;5047587;28;20607;-88
2021/06/21 07:14:46;;;;;;;6.53;1.67;;;;;;;25.57;55.71;99664.63;5052648;28;20037;-87
2021/06/21 07:17:11;;;;;;;7.15;1.50;;;;;;;25.65;55.21;99668.72;5052713;28;20075;-89
2021/06/21 07:19:37;;;;;;;7.20;1.50;;;;;;;25.81;55.35;99674.91;5052355;28;20033;-88
2021/06/21 07:22:03;;;;;;;3.80;1.33;;;;;;;25.83;55.29;99668.13;5068019;28;20404;-88
2021/06/21 07:24:29;;;;;;;5.97;1.50;;;;;;;26.58;55.20;99682.88;5062390;28;20032;-88
2021/06/21 07:26:54;;;;;;;5.38;1.50;;;;;;;26.49;53.44;99677.97;5052432;28;20044;-88
2021/06/21 07:29:20;;;;;;;5.57;1.48;;;;;;;26.54;51.60;99684.50;5051958;28;20033;-88
2021/06/21 07:31:46;;;;;;;4.80;1.52;;;;;;;26.37;51.71;99682.91;5068714;28;20423;-89
2021/06/21 07:34:12;;;;;;;4.05;1.20;;;;;;;26.15;53.03;99675.13;5051430;28;20033;-89
2021/06/21 07:36:37;;;;;;;4.25;1.38;;;;;;;26.08;55.67;99681.91;5053146;28;20079;-89
2021/06/21 07:39:10;;;;;;;3.53;1.20;;;;;;;25.98;51.00;99680.03;5052678;28;20088;-89
2021/06/21 07:41:35;;;;;;;2.90;1.27;;;;;;;26.68;50.27;99689.03;5051902;28;20041;-88
2021/06/21 07:44:01;;;;;;;4.72;1.30;;;;;;;26.18;52.51;99692.75;5051353;28;20500;-89
2021/06/21 07:46:27;;;;;;;4.88;1.33;;;;;;;26.50;49.91;99697.75;5052641;28;20821;-89
2021/06/21 07:48:52;;;;;;;4.75;1.10;;;;;;;26.64;51.90;99703.44;5051286;28;20408;-88
2021/06/21 07:51:18;;;;;;;7.80;1.33;;;;;;;25.92;53.17;99687.38;5052437;28;20063;-88
2021/06/21 07:53:45;;;;;;;4.07;1.20;;;;;;;26.33;49.20;99694.59;5051405;28;20029;-89
2021/06/21 07:56:13;;;;;;;4.30;1.40;;;;;;;25.82;50.29;99700.91;5050781;28;20052;-88
2021/06/21 07:58:41;;;;;;;3.55;1.00;;;;;;;25.29;52.60;99695.78;5053115;28;20036;-89
2021/06/21 08:01:07;;;;;;;2.78;1.25;;;;;;;25.50;52.64;99707.41;5053778;28;20116;-87
2021/06/21 08:03:33;;;;;;;4.85;1.20;;;;;;;25.36;54.62;99707.16;5054748;28;20037;-88
2021/06/21 08:06:02;;;;;;;3.45;1.27;;;;;;;24.97;54.04;99712.19;5052809;28;20075;-89
2021/06/21 08:08:28;;;;;;;5.18;1.25;;;;;;;25.13;57.42;99713.06;5051421;28;20456;-89
2021/06/21 08:10:54;;;;;;;3.95;1.58;;;;;;;25.15;54.23;99708.19;5052209;28;20076;-89
2021/06/21 08:13:19;;;;;;;3.28;1.10;;;;;;;25.15;57.59;99703.59;5051562;28;20400;-89
2021/06/21 08:15:45;;;;;;;4.80;1.20;;;;;;;25.32;58.86;99706.06;5052053;28;20064;-88
2021/06/21 08:18:10;;;;;;;4.97;1.35;;;;;;;25.78;55.25;99702.53;5051372;28;20060;-89
2021/06/21 08:20:36;;;;;;;4.18;1.08;;;;;;;26.80;53.47;99707.69;5051241;28;20033;-89
2021/06/21 08:23:03;;;;;;;5.75;1.10;;;;;;;27.66;51.50;99702.78;5051998;28;20430;-89
2021/06/21 08:25:28;;;;;;;3.38;1.20;;;;;;;28.77;47.07;99714.63;5052049;28;20029;-89
2021/06/21 08:27:54;;;;;;;6.20;1.58;;;;;;;29.03;44.67;99720.53;5050799;28;20488;-88
2021/06/21 08:30:19;;;;;;;4.47;1.23;;;;;;;29.32;43.86;99714.97;5053559;28;20045;-89
2021/06/21 08:32:45;;;;;;;4.30;1.20;;;;;;;28.06;46.19;99708.94;5065157;28;20028;-89
2021/06/21 08:35:11;;;;;;;4.97;1.20;;;;;;;27.86;46.90;99701.78;5052144;28;20040;-89
2021/06/21 08:37:37;;;;;;;3.30;1.30;;;;;;;27.16;49.90;99709.38;5054568;28;20036;-89
2021/06/21 08:40:07;;;;;;;4.63;1.45;;;;;;;26.91;49.12;99711.19;5064311;28;20029;-89
2021/06/21 08:42:35;;;;;;;3.97;1.00;;;;;;;27.13;48.59;99705.34;5051470;28;20044;-88
2021/06/21 08:45:01;;;;;;;5.35;1.40;;;;;;;27.45;49.95;99714.91;5062589;28;20044;-89
2021/06/21 08:47:28;;;;;;;3.72;1.25;;;;;;;27.08;46.99;99714.31;5054458;28;20155;-88
2021/06/21 08:49:54;;;;;;;3.70;1.38;;;;;;;26.19;50.12;99714.13;5055335;28;20056;-88
2021/06/21 08:52:20;;;;;;;3.80;1.00;;;;;;;26.23;50.36;99717.91;5052340;28;20086;-88
2021/06/21 08:54:47;;;;;;;4.15;1.13;;;;;;;25.82;51.57;99728.00;5052083;28;20028;-88
2021/06/21 08:57:13;;;;;;;3.05;1.15;;;;;;;26.63;50.61;99727.03;5050896;28;20029;-88
2021/06/21 08:59:42;;;;;;;5.03;1.10;;;;;;;26.88;49.16;99728.00;5050744;28;20108;-89
2021/06/21 09:02:08;;;;;;;4.50;1.30;;;;;;;26.56;51.18;99720.28;5068320;28;20120;-88
2021/06/21 09:04:38;;;;;;;2.70;1.10;;;;;;;26.44;52.62;99732.22;5056869;28;20067;-88
2021/06/21 09:07:17;;;;;;;2.65;1.05;;;;;;;27.27;49.91;99719.94;5051067;28;20079;-88
2021/06/21 09:09:43;;;;;;;4.15;0.90;;;;;;;27.46;46.33;99722.78;5051177;28;20064;-87
2021/06/21 09:12:08;;;;;;;2.33;0.90;;;;;;;27.77;47.06;99725.22;5050569;28;20032;-88
2021/06/21 09:14:36;;;;;;;3.42;0.90;;;;;;;28.00;45.74;99718.22;5052412;28;20560;-88
2021/06/21 09:17:08;;;;;;;2.90;1.20;;;;;;;28.18;45.77;99716.69;5068763;28;20029;-87
2021/06/21 09:19:50;;;;;;;3.78;1.10;;;;;;;28.40;43.47;99710.72;5067930;28;20158;-87
2021/06/21 09:22:25;;;;;;;4.13;1.00;;;;;;;28.46;44.59;99715.06;5054155;28;20507;-88
2021/06/21 09:24:50;;;;;;;3.50;1.05;;;;;;;28.32;43.51;99724.97;5066664;28;20036;-88
2021/06/21 09:27:18;;;;;;;2.72;1.00;;;;;;;27.74;44.71;99729.34;5052330;28;20037;-88
2021/06/21 09:29:44;;;;;;;2.97;1.25;;;;;;;27.40;47.55;99737.47;5056739;28;20043;-88
2021/06/21 09:32:09;;;;;;;3.03;1.00;;;;;;;27.43;45.94;99730.66;5050869;28;20505;-89
2021/06/21 09:34:38;;;;;;;2.33;1.02;;;;;;;27.08;45.83;99736.03;5052377;28;20091;-88
2021/06/21 09:37:08;;;;;;;3.00;1.20;;;;;;;27.24;46.55;99735.94;5051080;28;20396;-88
2021/06/21 09:39:39;;;;;;;3.08;0.90;;;;;;;27.03;49.04;99737.94;5053583;28;20059;-89
2021/06/21 09:42:22;;;;;;;3.10;1.75;;;;;;;27.26;48.40;99733.78;5062719;28;20586;-88
2021/06/21 09:44:52;;;;;;;2.85;1.27;;;;;;;27.15;49.98;99735.72;5056229;28;20037;-89
2021/06/21 09:47:23;;;;;;;3.83;1.00;;;;;;;27.30;47.45;99730.22;5056697;28;20511;-88
2021/06/21 09:50:19;;;;;;;4.72;1.20;;;;;;;27.59;47.74;99737.59;5062781;28;20039;-88
2021/06/21 09:52:59;;;;;;;4.22;1.23;;;;;;;28.25;44.52;99721.78;5051300;28;20048;-88
2021/06/21 09:55:33;;;;;;;1.90;0.90;;;;;;;27.85;44.48;99730.06;5054795;28;20115;-88
2021/06/21 09:58:28;;;;;;;2.85;1.10;;;;;;;27.80;44.50;99721.13;5055821;28;20033;-88
2021/06/21 10:01:11;;;;;;;2.80;1.00;;;;;;;27.99;46.13;99730.22;5050735;28;20040;-88
2021/06/21 10:03:44;;;;;;;3.70;1.48;;;;;;;28.27;44.59;99733.16;5044176;28;20037;-88
2021/06/21 10:06:14;;;;;;;3.53;1.42;;;;;;;28.06;45.11;99733.41;5053694;28;20037;-88
2021/06/21 10:08:49;;;;;;;4.65;1.38;;;;;;;28.37;44.67;99736.59;5056991;28;20049;-88
2021/06/21 10:11:36;;;;;;;3.15;1.02;;;;;;;28.26;45.86;99739.72;5058028;28;20068;-88
2021/06/21 10:14:20;;;;;;;2.65;1.45;;;;;;;27.91;46.60;99745.25;5055350;28;20040;-88
2021/06/21 10:16:48;;;;;;;5.32;2.65;;;;;;;28.04;44.76;99748.38;5053941;28;20060;-88
2021/06/21 10:19:14;;;;;;;6.85;3.97;;;;;;;27.80;45.89;99756.44;5056245;28;20033;-87
2021/06/21 10:21:43;;;;;;;3.92;1.30;;;;;;;27.64;46.22;99753.84;5074979;28;20032;-88
2021/06/21 10:24:09;;;;;;;3.03;1.27;;;;;;;27.58;46.90;99757.72;5057430;28;20052;-88
2021/06/21 10:26:39;;;;;;;3.35;1.10;;;;;;;27.25;48.10;99754.69;5054481;28;20037;-88
2021/06/21 10:29:05;;;;;;;4.68;1.58;;;;;;;27.32;49.21;99757.88;5054328;28;20049;-88
2021/06/21 10:31:32;;;;;;;3.22;1.20;;;;;;;27.57;48.49;99760.69;5056591;28;20095;-88
2021/06/21 10:33:59;;;;;;;2.22;1.00;;;;;;;28.02;47.49;99766.88;5052612;28;20031;-88
2021/06/21 10:36:50;;;;;;;3.55;1.20;;;;;;;28.64;46.24;99765.13;5055062;28;20029;-90
2021/06/21 10:39:20;;;;;;;4.00;1.67;;;;;;;28.40;42.92;99758.88;5073446;28;20385;-88
2021/06/21 10:42:04;;;;;;;4.25;1.80;;;;;;;28.23;43.39;99760.13;5045538;28;20133;-87
2021/06/21 10:44:56;;;;;;;4.55;1.33;;;;;;;27.52;47.01;99765.06;5048271;28;20672;-87
2021/06/21 10:47:42;;;;;;;4.93;1.27;;;;;;;27.61;46.24;99762.56;5053568;28;20037;-87
2021/06/21 10:50:11;;;;;;;3.60;1.20;;;;;;;27.39;47.94;99759.47;5052433;28;20047;-88
2021/06/21 10:52:47;;;;;;;3.03;1.27;;;;;;;27.25;46.81;99767.44;5054211;28;20120;-88
2021/06/21 10:55:22;;;;;;;3.22;1.10;;;;;;;27.17;47.07;99776.94;5054771;28;20044;-88
2021/06/21 10:58:20;;;;;;;4.03;1.33;;;;;;;27.08;47.23;99765.88;5076843;28;20107;-88
2021/06/21 11:00:48;;;;;;;3.42;1.30;;;;;;;27.43;48.60;99769.47;5048488;28;20032;-87
2021/06/21 11:03:23;;;;;;;3.35;1.50;;;;;;;27.81;47.05;99775.16;5055351;28;20033;-87
2021/06/21 11:05:49;;;;;;;5.75;2.50;;;;;;;28.12;46.85;99775.72;5053445;28;20040;-88
2021/06/21 11:08:38;;;;;;;2.53;1.15;;;;;;;28.37;45.97;99766.50;5053488;28;20120;-87
2021/06/21 11:11:45;;;;;;;3.97;1.25;;;;;;;28.45;45.27;99775.94;5048014;28;20037;-88
2021/06/21 11:14:15;;;;;;;2.25;1.02;;;;;;;28.65;42.77;99772.22;5072275;28;20131;-89
2021/06/21 11:16:42;;;;;;;3.40;1.00;;;;;;;28.64;45.54;99761.63;5066392;28;20115;-90
2021/06/21 11:19:25;;;;;;;2.20;1.10;;;;;;;28.78;43.81;99759.81;5058048;28;20059;-88
2021/06/21 11:21:55;;;;;;;4.53;1.75;;;;;;;28.71;44.44;99765.59;5047698;28;20500;-87
2021/06/21 11:24:36;;;;;;;2.67;1.27;;;;;;;28.31;45.23;99764.94;5051589;28;21162;-88
2021/06/21 11:27:06;;;;;;;2.22;1.00;;;;;;;27.80;44.32;99762.69;5069217;28;20520;-87
2021/06/21 11:29:37;;;;;;;3.60;1.30;;;;;;;27.90;45.48;99761.81;5054453;28;20833;-87
2021/06/21 11:32:04;;;;;;;3.10;1.13;;;;;;;28.28;45.86;99753.84;5058977;28;20846;-88
2021/06/21 11:34:54;;;;;;;4.07;1.10;;;;;;;28.35;44.95;99754.31;5052468;28;20044;-88
2021/06/21 11:37:50;;;;;;;2.28;1.02;;;;;;;28.19;43.65;99748.22;5054443;28;20033;-87
2021/06/21 11:40:19;;;;;;;3.42;1.40;;;;;;;27.82;43.52;99743.41;5052376;28;20032;-87
2021/06/21 11:42:56;;;;;;;2.30;1.05;;;;;;;27.90;44.30;99748.22;5044849;28;20131;-87
2021/06/21 11:45:51;;;;;;;1.48;0.98;;;;;;;28.07;44.20;99745.88;5052578;28;20157;-87